sensor_id;sensor_type;location;lat;lon;timestamp;P1;durP1;ratioP1;P2;durP2;ratioP2
77828;SDS011;67019;51.034;3.728;2023-08-21T00:02:27;12.23;;;2.50;;
77828;SDS011;67019;51.034;3.728;2023-08-21T00:04:55;17.12;;;2.58;;
77828;SDS011;67019;51.034;3.728;2023-08-21T00:07:22;7.50;;;2.50;;
77828;SDS011;67019;51.034;3.728;2023-08-21T00:09:50;15.08;;;2.98;;
77828;SDS011;67019;51.034;3.728;2023-08-21T00:12:18;13.55;;;2.17;;
77828;SDS011;67019;51.034;3.728;2023-08-21T00:14:45;7.20;;;1.87;;
77828;SDS011;67019;51.034;3.728;2023-08-21T00:17:13;9.55;;;2.52;;
77828;SDS011;67019;51.034;3.728;2023-08-21T00:19:40;8.13;;;2.50;;
77828;SDS011;67019;51.034;3.728;2023-08-21T00:22:08;7.35;;;2.00;;
77828;SDS011;67019;51.034;3.728;2023-08-21T00:24:36;8.65;;;2.00;;
77828;SDS011;67019;51.034;3.728;2023-08-21T00:27:03;8.63;;;2.12;;
77828;SDS011;67019;51.034;3.728;2023-08-21T00:29:31;12.10;;;2.10;;
77828;SDS011;67019;51.034;3.728;2023-08-21T00:31:59;6.75;;;1.80;;
77828;SDS011;67019;51.034;3.728;2023-08-21T00:34:26;9.48;;;2.35;;
77828;SDS011;67019;51.034;3.728;2023-08-21T00:36:54;6.95;;;2.37;;
77828;SDS011;67019;51.034;3.728;2023-08-21T00:39:21;10.78;;;2.70;;
77828;SDS011;67019;51.034;3.728;2023-08-21T00:41:49;13.53;;;2.27;;
77828;SDS011;67019;51.034;3.728;2023-08-21T00:44:16;6.67;;;1.95;;
77828;SDS011;67019;51.034;3.728;2023-08-21T00:46:44;8.73;;;1.82;;
77828;SDS011;67019;51.034;3.728;2023-08-21T00:49:12;5.67;;;1.95;;
77828;SDS011;67019;51.034;3.728;2023-08-21T00:51:39;11.85;;;2.40;;
77828;SDS011;67019;51.034;3.728;2023-08-21T00:54:08;10.70;;;3.10;;
77828;SDS011;67019;51.034;3.728;2023-08-21T00:56:36;6.85;;;1.92;;
77828;SDS011;67019;51.034;3.728;2023-08-21T00:59:04;6.10;;;2.10;;
77828;SDS011;67019;51.034;3.728;2023-08-21T01:01:32;4.15;;;1.80;;
77828;SDS011;67019;51.034;3.728;2023-08-21T01:04:00;14.83;;;2.60;;
77828;SDS011;67019;51.034;3.728;2023-08-21T01:06:29;6.30;;;1.90;;
77828;SDS011;67019;51.034;3.728;2023-08-21T01:09:06;11.57;;;2.17;;
77828;SDS011;67019;51.034;3.728;2023-08-21T01:14:15;8.65;;;2.17;;
77828;SDS011;67019;51.034;3.728;2023-08-21T01:16:42;8.48;;;2.42;;
77828;SDS011;67019;51.034;3.728;2023-08-21T01:19:19;7.87;;;2.00;;
77828;SDS011;67019;51.034;3.728;2023-08-21T01:21:43;8.33;;;2.30;;
77828;SDS011;67019;51.034;3.728;2023-08-21T01:24:11;4.03;;;1.60;;
77828;SDS011;67019;51.034;3.728;2023-08-21T01:26:38;7.33;;;2.37;;
77828;SDS011;67019;51.034;3.728;2023-08-21T01:29:06;5.80;;;2.25;;
77828;SDS011;67019;51.034;3.728;2023-08-21T01:31:34;13.62;;;2.42;;
77828;SDS011;67019;51.034;3.728;2023-08-21T01:34:04;8.70;;;1.90;;
77828;SDS011;67019;51.034;3.728;2023-08-21T01:36:35;7.83;;;2.25;;
77828;SDS011;67019;51.034;3.728;2023-08-21T01:39:03;7.50;;;2.33;;
77828;SDS011;67019;51.034;3.728;2023-08-21T01:41:31;9.80;;;3.05;;
77828;SDS011;67019;51.034;3.728;2023-08-21T01:43:59;10.88;;;3.15;;
77828;SDS011;67019;51.034;3.728;2023-08-21T01:46:26;5.85;;;2.10;;
77828;SDS011;67019;51.034;3.728;2023-08-21T01:48:54;7.78;;;2.33;;
77828;SDS011;67019;51.034;3.728;2023-08-21T01:51:21;11.38;;;2.37;;
77828;SDS011;67019;51.034;3.728;2023-08-21T01:53:49;14.43;;;3.65;;
77828;SDS011;67019;51.034;3.728;2023-08-21T01:56:17;7.08;;;2.30;;
77828;SDS011;67019;51.034;3.728;2023-08-21T01:58:44;3.90;;;1.87;;
77828;SDS011;67019;51.034;3.728;2023-08-21T02:01:12;5.03;;;2.08;;
77828;SDS011;67019;51.034;3.728;2023-08-21T02:03:40;7.45;;;2.30;;
77828;SDS011;67019;51.034;3.728;2023-08-21T02:06:08;10.48;;;4.42;;
77828;SDS011;67019;51.034;3.728;2023-08-21T02:08:35;6.80;;;2.70;;
77828;SDS011;67019;51.034;3.728;2023-08-21T02:11:03;12.40;;;2.58;;
77828;SDS011;67019;51.034;3.728;2023-08-21T02:13:31;12.65;;;3.05;;
77828;SDS011;67019;51.034;3.728;2023-08-21T02:15:58;11.73;;;2.90;;
77828;SDS011;67019;51.034;3.728;2023-08-21T02:18:26;8.93;;;2.62;;
77828;SDS011;67019;51.034;3.728;2023-08-21T02:20:54;6.45;;;1.80;;
77828;SDS011;67019;51.034;3.728;2023-08-21T02:23:21;5.67;;;2.00;;
77828;SDS011;67019;51.034;3.728;2023-08-21T02:25:50;17.15;;;2.47;;
77828;SDS011;67019;51.034;3.728;2023-08-21T02:28:18;11.25;;;2.37;;
77828;SDS011;67019;51.034;3.728;2023-08-21T02:30:45;18.42;;;3.40;;
77828;SDS011;67019;51.034;3.728;2023-08-21T02:33:13;13.30;;;3.35;;
77828;SDS011;67019;51.034;3.728;2023-08-21T02:35:41;11.95;;;3.12;;
77828;SDS011;67019;51.034;3.728;2023-08-21T02:38:08;11.12;;;3.02;;
77828;SDS011;67019;51.034;3.728;2023-08-21T02:40:36;9.63;;;2.80;;
77828;SDS011;67019;51.034;3.728;2023-08-21T02:43:05;14.23;;;3.20;;
77828;SDS011;67019;51.034;3.728;2023-08-21T02:45:32;6.37;;;3.22;;
77828;SDS011;67019;51.034;3.728;2023-08-21T02:48:00;9.88;;;3.10;;
77828;SDS011;67019;51.034;3.728;2023-08-21T02:50:27;15.58;;;3.75;;
77828;SDS011;67019;51.034;3.728;2023-08-21T02:52:55;15.98;;;4.08;;
77828;SDS011;67019;51.034;3.728;2023-08-21T02:55:22;13.00;;;3.10;;
77828;SDS011;67019;51.034;3.728;2023-08-21T02:57:50;12.70;;;4.00;;
77828;SDS011;67019;51.034;3.728;2023-08-21T03:00:18;9.50;;;3.70;;
77828;SDS011;67019;51.034;3.728;2023-08-21T03:02:45;12.05;;;4.60;;
77828;SDS011;67019;51.034;3.728;2023-08-21T03:05:13;15.83;;;4.90;;
77828;SDS011;67019;51.034;3.728;2023-08-21T03:07:43;9.50;;;3.98;;
77828;SDS011;67019;51.034;3.728;2023-08-21T03:10:10;8.33;;;4.20;;
77828;SDS011;67019;51.034;3.728;2023-08-21T03:12:37;11.48;;;4.60;;
77828;SDS011;67019;51.034;3.728;2023-08-21T03:15:05;9.73;;;4.47;;
77828;SDS011;67019;51.034;3.728;2023-08-21T03:17:33;14.13;;;4.78;;
77828;SDS011;67019;51.034;3.728;2023-08-21T03:20:01;13.00;;;4.22;;
77828;SDS011;67019;51.034;3.728;2023-08-21T03:22:30;12.07;;;5.00;;
77828;SDS011;67019;51.034;3.728;2023-08-21T03:24:58;13.83;;;4.65;;
77828;SDS011;67019;51.034;3.728;2023-08-21T03:27:26;16.35;;;5.00;;
77828;SDS011;67019;51.034;3.728;2023-08-21T03:29:53;9.68;;;4.95;;
77828;SDS011;67019;51.034;3.728;2023-08-21T03:32:21;19.05;;;6.45;;
77828;SDS011;67019;51.034;3.728;2023-08-21T03:34:50;14.15;;;5.08;;
77828;SDS011;67019;51.034;3.728;2023-08-21T03:37:18;15.05;;;5.25;;
77828;SDS011;67019;51.034;3.728;2023-08-21T03:39:45;12.13;;;5.10;;
77828;SDS011;67019;51.034;3.728;2023-08-21T03:42:13;9.33;;;4.85;;
77828;SDS011;67019;51.034;3.728;2023-08-21T03:44:41;20.27;;;5.45;;
77828;SDS011;67019;51.034;3.728;2023-08-21T03:47:08;14.38;;;4.70;;
77828;SDS011;67019;51.034;3.728;2023-08-21T03:49:36;13.50;;;5.58;;
77828;SDS011;67019;51.034;3.728;2023-08-21T03:52:05;12.40;;;4.97;;
77828;SDS011;67019;51.034;3.728;2023-08-21T03:54:32;22.17;;;5.65;;
77828;SDS011;67019;51.034;3.728;2023-08-21T03:57:00;14.65;;;5.42;;
77828;SDS011;67019;51.034;3.728;2023-08-21T03:59:28;18.30;;;6.60;;
77828;SDS011;67019;51.034;3.728;2023-08-21T04:01:55;11.33;;;5.58;;
77828;SDS011;67019;51.034;3.728;2023-08-21T04:04:24;13.15;;;4.92;;
77828;SDS011;67019;51.034;3.728;2023-08-21T04:06:52;16.55;;;5.92;;
77828;SDS011;67019;51.034;3.728;2023-08-21T04:09:19;12.60;;;5.40;;
77828;SDS011;67019;51.034;3.728;2023-08-21T04:11:47;15.03;;;5.45;;
77828;SDS011;67019;51.034;3.728;2023-08-21T04:14:15;17.65;;;5.47;;
77828;SDS011;67019;51.034;3.728;2023-08-21T04:16:43;18.85;;;6.25;;
77828;SDS011;67019;51.034;3.728;2023-08-21T04:19:11;20.60;;;8.58;;
77828;SDS011;67019;51.034;3.728;2023-08-21T04:21:39;13.93;;;6.40;;
77828;SDS011;67019;51.034;3.728;2023-08-21T04:24:06;17.25;;;6.30;;
77828;SDS011;67019;51.034;3.728;2023-08-21T04:26:34;12.88;;;5.65;;
77828;SDS011;67019;51.034;3.728;2023-08-21T04:29:01;16.37;;;6.40;;
77828;SDS011;67019;51.034;3.728;2023-08-21T04:31:29;15.05;;;6.40;;
77828;SDS011;67019;51.034;3.728;2023-08-21T04:33:57;11.68;;;5.47;;
77828;SDS011;67019;51.034;3.728;2023-08-21T04:36:26;11.97;;;6.78;;
77828;SDS011;67019;51.034;3.728;2023-08-21T04:38:53;13.43;;;6.45;;
77828;SDS011;67019;51.034;3.728;2023-08-21T04:41:21;10.75;;;6.62;;
77828;SDS011;67019;51.034;3.728;2023-08-21T04:43:48;13.65;;;6.70;;
77828;SDS011;67019;51.034;3.728;2023-08-21T04:46:16;21.97;;;7.17;;
77828;SDS011;67019;51.034;3.728;2023-08-21T04:48:45;16.02;;;7.03;;
77828;SDS011;67019;51.034;3.728;2023-08-21T04:51:13;16.70;;;7.00;;
77828;SDS011;67019;51.034;3.728;2023-08-21T04:53:41;12.37;;;6.85;;
77828;SDS011;67019;51.034;3.728;2023-08-21T04:56:09;12.15;;;7.40;;
77828;SDS011;67019;51.034;3.728;2023-08-21T04:58:36;22.42;;;7.50;;
77828;SDS011;67019;51.034;3.728;2023-08-21T05:01:04;22.73;;;8.03;;
77828;SDS011;67019;51.034;3.728;2023-08-21T05:03:32;16.50;;;8.55;;
77828;SDS011;67019;51.034;3.728;2023-08-21T05:05:59;12.43;;;6.87;;
77828;SDS011;67019;51.034;3.728;2023-08-21T05:08:27;23.47;;;8.15;;
77828;SDS011;67019;51.034;3.728;2023-08-21T05:10:55;20.05;;;8.88;;
77828;SDS011;67019;51.034;3.728;2023-08-21T05:13:23;17.73;;;8.90;;
77828;SDS011;67019;51.034;3.728;2023-08-21T05:15:51;16.87;;;8.13;;
77828;SDS011;67019;51.034;3.728;2023-08-21T05:18:20;16.42;;;8.20;;
77828;SDS011;67019;51.034;3.728;2023-08-21T05:20:49;25.97;;;8.23;;
77828;SDS011;67019;51.034;3.728;2023-08-21T05:23:16;16.45;;;7.53;;
77828;SDS011;67019;51.034;3.728;2023-08-21T05:25:44;11.83;;;7.87;;
77828;SDS011;67019;51.034;3.728;2023-08-21T05:28:14;18.70;;;7.43;;
77828;SDS011;67019;51.034;3.728;2023-08-21T05:30:41;11.12;;;6.70;;
77828;SDS011;67019;51.034;3.728;2023-08-21T05:33:09;15.53;;;6.75;;
77828;SDS011;67019;51.034;3.728;2023-08-21T05:35:37;18.37;;;7.42;;
77828;SDS011;67019;51.034;3.728;2023-08-21T05:38:05;21.57;;;8.03;;
77828;SDS011;67019;51.034;3.728;2023-08-21T05:40:33;15.05;;;7.00;;
77828;SDS011;67019;51.034;3.728;2023-08-21T05:43:01;19.12;;;9.03;;
77828;SDS011;67019;51.034;3.728;2023-08-21T05:45:30;25.72;;;9.48;;
77828;SDS011;67019;51.034;3.728;2023-08-21T05:48:00;26.25;;;8.63;;
77828;SDS011;67019;51.034;3.728;2023-08-21T05:50:28;21.90;;;8.10;;
77828;SDS011;67019;51.034;3.728;2023-08-21T05:52:56;23.65;;;8.63;;
77828;SDS011;67019;51.034;3.728;2023-08-21T05:55:24;15.80;;;8.63;;
77828;SDS011;67019;51.034;3.728;2023-08-21T05:57:51;19.02;;;8.38;;
77828;SDS011;67019;51.034;3.728;2023-08-21T06:00:19;21.33;;;9.23;;
77828;SDS011;67019;51.034;3.728;2023-08-21T06:02:46;29.35;;;9.18;;
77828;SDS011;67019;51.034;3.728;2023-08-21T06:05:14;25.23;;;10.18;;
77828;SDS011;67019;51.034;3.728;2023-08-21T06:07:42;26.30;;;9.13;;
77828;SDS011;67019;51.034;3.728;2023-08-21T06:10:10;27.52;;;10.10;;
77828;SDS011;67019;51.034;3.728;2023-08-21T06:12:39;32.63;;;10.03;;
77828;SDS011;67019;51.034;3.728;2023-08-21T06:15:09;25.48;;;10.25;;
77828;SDS011;67019;51.034;3.728;2023-08-21T06:17:38;31.65;;;9.65;;
77828;SDS011;67019;51.034;3.728;2023-08-21T06:20:07;27.05;;;10.53;;
77828;SDS011;67019;51.034;3.728;2023-08-21T06:22:35;24.12;;;10.48;;
77828;SDS011;67019;51.034;3.728;2023-08-21T06:25:03;27.98;;;10.68;;
77828;SDS011;67019;51.034;3.728;2023-08-21T06:27:31;26.33;;;10.03;;
77828;SDS011;67019;51.034;3.728;2023-08-21T06:29:59;23.62;;;11.18;;
77828;SDS011;67019;51.034;3.728;2023-08-21T06:32:26;34.75;;;11.40;;
77828;SDS011;67019;51.034;3.728;2023-08-21T06:34:54;23.77;;;9.78;;
77828;SDS011;67019;51.034;3.728;2023-08-21T06:37:22;35.52;;;12.23;;
77828;SDS011;67019;51.034;3.728;2023-08-21T06:39:50;36.28;;;12.03;;
77828;SDS011;67019;51.034;3.728;2023-08-21T06:42:19;43.15;;;12.07;;
77828;SDS011;67019;51.034;3.728;2023-08-21T06:44:48;29.05;;;11.05;;
77828;SDS011;67019;51.034;3.728;2023-08-21T06:47:16;34.95;;;11.38;;
77828;SDS011;67019;51.034;3.728;2023-08-21T06:49:44;33.20;;;11.20;;
77828;SDS011;67019;51.034;3.728;2023-08-21T06:52:11;31.50;;;10.90;;
77828;SDS011;67019;51.034;3.728;2023-08-21T06:54:39;38.98;;;12.35;;
77828;SDS011;67019;51.034;3.728;2023-08-21T06:57:06;27.73;;;11.78;;
77828;SDS011;67019;51.034;3.728;2023-08-21T06:59:34;29.57;;;11.78;;
77828;SDS011;67019;51.034;3.728;2023-08-21T07:02:02;28.05;;;12.30;;
77828;SDS011;67019;51.034;3.728;2023-08-21T07:04:30;86.70;;;17.98;;
77828;SDS011;67019;51.034;3.728;2023-08-21T07:06:59;57.83;;;17.00;;
77828;SDS011;67019;51.034;3.728;2023-08-21T07:09:28;31.57;;;12.90;;
77828;SDS011;67019;51.034;3.728;2023-08-21T07:11:56;34.95;;;12.20;;
77828;SDS011;67019;51.034;3.728;2023-08-21T07:14:23;49.95;;;16.40;;
77828;SDS011;67019;51.034;3.728;2023-08-21T07:16:51;83.22;;;19.55;;
77828;SDS011;67019;51.034;3.728;2023-08-21T07:19:18;73.40;;;15.20;;
77828;SDS011;67019;51.034;3.728;2023-08-21T07:21:46;33.70;;;13.65;;
77828;SDS011;67019;51.034;3.728;2023-08-21T07:24:13;32.58;;;13.25;;
77828;SDS011;67019;51.034;3.728;2023-08-21T07:26:41;35.75;;;14.43;;
77828;SDS011;67019;51.034;3.728;2023-08-21T07:29:09;29.50;;;14.23;;
77828;SDS011;67019;51.034;3.728;2023-08-21T07:31:36;30.15;;;14.20;;
77828;SDS011;67019;51.034;3.728;2023-08-21T07:37:11;34.73;;;15.18;;
77828;SDS011;67019;51.034;3.728;2023-08-21T07:39:38;31.57;;;14.78;;
77828;SDS011;67019;51.034;3.728;2023-08-21T07:42:06;36.42;;;16.32;;
77828;SDS011;67019;51.034;3.728;2023-08-21T07:44:34;31.82;;;16.37;;
77828;SDS011;67019;51.034;3.728;2023-08-21T07:47:01;34.73;;;15.38;;
77828;SDS011;67019;51.034;3.728;2023-08-21T07:49:29;41.70;;;15.63;;
77828;SDS011;67019;51.034;3.728;2023-08-21T07:51:59;33.10;;;17.82;;
77828;SDS011;67019;51.034;3.728;2023-08-21T07:54:26;39.88;;;18.37;;
77828;SDS011;67019;51.034;3.728;2023-08-21T07:56:54;65.17;;;22.45;;
77828;SDS011;67019;51.034;3.728;2023-08-21T07:59:21;34.70;;;17.50;;
77828;SDS011;67019;51.034;3.728;2023-08-21T08:01:49;38.67;;;18.05;;
77828;SDS011;67019;51.034;3.728;2023-08-21T08:04:17;41.33;;;17.75;;
77828;SDS011;67019;51.034;3.728;2023-08-21T08:06:45;33.25;;;17.10;;
77828;SDS011;67019;51.034;3.728;2023-08-21T08:09:13;39.30;;;17.57;;
77828;SDS011;67019;51.034;3.728;2023-08-21T08:11:41;43.23;;;17.23;;
77828;SDS011;67019;51.034;3.728;2023-08-21T08:14:08;34.23;;;17.45;;
77828;SDS011;67019;51.034;3.728;2023-08-21T08:16:36;61.90;;;20.15;;
77828;SDS011;67019;51.034;3.728;2023-08-21T08:19:05;45.90;;;17.67;;
77828;SDS011;67019;51.034;3.728;2023-08-21T08:21:33;36.95;;;16.65;;
77828;SDS011;67019;51.034;3.728;2023-08-21T08:24:02;32.98;;;16.55;;
77828;SDS011;67019;51.034;3.728;2023-08-21T08:26:29;32.15;;;18.27;;
77828;SDS011;67019;51.034;3.728;2023-08-21T08:28:57;30.02;;;16.40;;
77828;SDS011;67019;51.034;3.728;2023-08-21T08:31:25;36.45;;;15.88;;
77828;SDS011;67019;51.034;3.728;2023-08-21T08:33:55;29.75;;;16.90;;
77828;SDS011;67019;51.034;3.728;2023-08-21T08:36:22;29.42;;;15.45;;
77828;SDS011;67019;51.034;3.728;2023-08-21T08:38:49;23.83;;;12.43;;
77828;SDS011;67019;51.034;3.728;2023-08-21T08:41:24;28.27;;;13.98;;
77828;SDS011;67019;51.034;3.728;2023-08-21T08:43:54;26.52;;;13.08;;
77828;SDS011;67019;51.034;3.728;2023-08-21T08:46:24;27.00;;;13.28;;
77828;SDS011;67019;51.034;3.728;2023-08-21T08:48:52;24.15;;;11.85;;
77828;SDS011;67019;51.034;3.728;2023-08-21T08:51:22;25.17;;;12.70;;
77828;SDS011;67019;51.034;3.728;2023-08-21T08:53:52;24.75;;;12.68;;
77828;SDS011;67019;51.034;3.728;2023-08-21T08:56:19;25.97;;;11.38;;
77828;SDS011;67019;51.034;3.728;2023-08-21T08:58:47;25.62;;;12.60;;
77828;SDS011;67019;51.034;3.728;2023-08-21T09:01:15;20.35;;;12.28;;
77828;SDS011;67019;51.034;3.728;2023-08-21T09:03:43;23.92;;;12.25;;
77828;SDS011;67019;51.034;3.728;2023-08-21T09:06:12;25.77;;;11.88;;
77828;SDS011;67019;51.034;3.728;2023-08-21T09:08:42;22.35;;;11.12;;
77828;SDS011;67019;51.034;3.728;2023-08-21T09:11:22;18.62;;;11.35;;
77828;SDS011;67019;51.034;3.728;2023-08-21T09:13:51;23.62;;;10.85;;
77828;SDS011;67019;51.034;3.728;2023-08-21T09:16:20;17.77;;;10.68;;
77828;SDS011;67019;51.034;3.728;2023-08-21T09:18:52;18.32;;;8.95;;
77828;SDS011;67019;51.034;3.728;2023-08-21T09:21:23;18.25;;;9.70;;
77828;SDS011;67019;51.034;3.728;2023-08-21T09:23:57;22.25;;;11.15;;
77828;SDS011;67019;51.034;3.728;2023-08-21T09:26:26;18.05;;;10.90;;
77828;SDS011;67019;51.034;3.728;2023-08-21T09:28:53;23.47;;;9.70;;
77828;SDS011;67019;51.034;3.728;2023-08-21T09:31:21;24.12;;;11.83;;
77828;SDS011;67019;51.034;3.728;2023-08-21T09:33:58;17.30;;;10.45;;
77828;SDS011;67019;51.034;3.728;2023-08-21T09:36:29;17.60;;;11.50;;
77828;SDS011;67019;51.034;3.728;2023-08-21T09:38:57;19.07;;;10.70;;
77828;SDS011;67019;51.034;3.728;2023-08-21T09:41:26;21.42;;;11.10;;
77828;SDS011;67019;51.034;3.728;2023-08-21T09:43:58;17.87;;;10.98;;
77828;SDS011;67019;51.034;3.728;2023-08-21T09:46:26;17.00;;;9.80;;
77828;SDS011;67019;51.034;3.728;2023-08-21T09:48:54;14.98;;;8.50;;
77828;SDS011;67019;51.034;3.728;2023-08-21T09:51:22;14.90;;;7.58;;
77828;SDS011;67019;51.034;3.728;2023-08-21T09:53:50;18.75;;;11.93;;
77828;SDS011;67019;51.034;3.728;2023-08-21T09:56:19;20.53;;;11.20;;
77828;SDS011;67019;51.034;3.728;2023-08-21T09:58:47;19.55;;;12.47;;
77828;SDS011;67019;51.034;3.728;2023-08-21T10:01:16;21.60;;;10.08;;
77828;SDS011;67019;51.034;3.728;2023-08-21T10:03:45;17.48;;;8.78;;
77828;SDS011;67019;51.034;3.728;2023-08-21T10:06:15;10.82;;;6.50;;
77828;SDS011;67019;51.034;3.728;2023-08-21T10:08:45;16.42;;;8.45;;
77828;SDS011;67019;51.034;3.728;2023-08-21T10:11:15;14.58;;;9.05;;
77828;SDS011;67019;51.034;3.728;2023-08-21T10:13:46;11.97;;;7.35;;
77828;SDS011;67019;51.034;3.728;2023-08-21T10:16:16;17.30;;;8.10;;
77828;SDS011;67019;51.034;3.728;2023-08-21T10:18:44;10.78;;;5.25;;
77828;SDS011;67019;51.034;3.728;2023-08-21T10:21:14;15.08;;;7.72;;
77828;SDS011;67019;51.034;3.728;2023-08-21T10:23:47;18.27;;;8.38;;
77828;SDS011;67019;51.034;3.728;2023-08-21T10:26:18;20.35;;;9.88;;
77828;SDS011;67019;51.034;3.728;2023-08-21T10:28:56;11.73;;;7.87;;
77828;SDS011;67019;51.034;3.728;2023-08-21T10:31:32;11.30;;;5.97;;
77828;SDS011;67019;51.034;3.728;2023-08-21T10:34:08;26.27;;;7.45;;
77828;SDS011;67019;51.034;3.728;2023-08-21T10:41:54;13.93;;;6.47;;
77828;SDS011;67019;51.034;3.728;2023-08-21T10:44:36;10.53;;;4.87;;
77828;SDS011;67019;51.034;3.728;2023-08-21T10:49:44;16.25;;;6.03;;
77828;SDS011;67019;51.034;3.728;2023-08-21T10:52:13;13.17;;;6.23;;
77828;SDS011;67019;51.034;3.728;2023-08-21T10:54:45;13.95;;;5.20;;
77828;SDS011;67019;51.034;3.728;2023-08-21T10:57:17;12.30;;;4.17;;
77828;SDS011;67019;51.034;3.728;2023-08-21T10:59:52;9.93;;;3.77;;
77828;SDS011;67019;51.034;3.728;2023-08-21T11:02:22;11.83;;;6.10;;
77828;SDS011;67019;51.034;3.728;2023-08-21T11:04:52;10.60;;;5.33;;
77828;SDS011;67019;51.034;3.728;2023-08-21T11:07:20;8.18;;;3.80;;
77828;SDS011;67019;51.034;3.728;2023-08-21T11:09:48;14.03;;;4.78;;
77828;SDS011;67019;51.034;3.728;2023-08-21T11:12:18;9.58;;;4.50;;
77828;SDS011;67019;51.034;3.728;2023-08-21T11:14:47;8.93;;;3.65;;
77828;SDS011;67019;51.034;3.728;2023-08-21T11:17:15;9.55;;;3.70;;
77828;SDS011;67019;51.034;3.728;2023-08-21T11:19:45;7.83;;;2.72;;
77828;SDS011;67019;51.034;3.728;2023-08-21T11:22:14;5.58;;;2.35;;
77828;SDS011;67019;51.034;3.728;2023-08-21T11:24:45;8.08;;;2.12;;
77828;SDS011;67019;51.034;3.728;2023-08-21T11:27:16;7.58;;;2.85;;
77828;SDS011;67019;51.034;3.728;2023-08-21T11:32:13;7.28;;;1.92;;
77828;SDS011;67019;51.034;3.728;2023-08-21T11:34:52;3.77;;;1.67;;
77828;SDS011;67019;51.034;3.728;2023-08-21T11:37:26;5.53;;;1.87;;
77828;SDS011;67019;51.034;3.728;2023-08-21T11:39:52;4.05;;;1.70;;
77828;SDS011;67019;51.034;3.728;2023-08-21T11:42:22;3.20;;;1.50;;
77828;SDS011;67019;51.034;3.728;2023-08-21T11:44:58;3.87;;;1.60;;
77828;SDS011;67019;51.034;3.728;2023-08-21T11:47:32;4.85;;;2.65;;
77828;SDS011;67019;51.034;3.728;2023-08-21T11:50:05;8.30;;;3.12;;
77828;SDS011;67019;51.034;3.728;2023-08-21T11:52:36;3.85;;;2.35;;
77828;SDS011;67019;51.034;3.728;2023-08-21T11:55:07;5.53;;;1.82;;
77828;SDS011;67019;51.034;3.728;2023-08-21T11:57:48;6.55;;;1.50;;
77828;SDS011;67019;51.034;3.728;2023-08-21T12:00:17;5.42;;;2.10;;
77828;SDS011;67019;51.034;3.728;2023-08-21T12:02:53;4.87;;;2.33;;
77828;SDS011;67019;51.034;3.728;2023-08-21T12:05:30;7.87;;;2.37;;
77828;SDS011;67019;51.034;3.728;2023-08-21T12:07:55;12.90;;;3.12;;
77828;SDS011;67019;51.034;3.728;2023-08-21T12:10:31;3.40;;;1.70;;
77828;SDS011;67019;51.034;3.728;2023-08-21T12:12:55;2.90;;;1.92;;
77828;SDS011;67019;51.034;3.728;2023-08-21T12:15:23;3.92;;;2.08;;
77828;SDS011;67019;51.034;3.728;2023-08-21T12:17:52;8.13;;;2.00;;
77828;SDS011;67019;51.034;3.728;2023-08-21T12:20:20;6.75;;;2.10;;
77828;SDS011;67019;51.034;3.728;2023-08-21T12:22:47;5.95;;;2.17;;
77828;SDS011;67019;51.034;3.728;2023-08-21T12:25:15;6.03;;;2.40;;
77828;SDS011;67019;51.034;3.728;2023-08-21T12:27:43;8.00;;;2.67;;
77828;SDS011;67019;51.034;3.728;2023-08-21T12:30:13;2.90;;;2.02;;
77828;SDS011;67019;51.034;3.728;2023-08-21T12:32:40;4.70;;;1.95;;
77828;SDS011;67019;51.034;3.728;2023-08-21T12:35:08;4.78;;;1.92;;
77828;SDS011;67019;51.034;3.728;2023-08-21T12:37:37;5.77;;;2.00;;
77828;SDS011;67019;51.034;3.728;2023-08-21T12:40:05;22.77;;;4.62;;
77828;SDS011;67019;51.034;3.728;2023-08-21T12:42:34;5.60;;;2.42;;
77828;SDS011;67019;51.034;3.728;2023-08-21T12:45:02;7.67;;;2.83;;
77828;SDS011;67019;51.034;3.728;2023-08-21T12:47:31;12.05;;;4.97;;
77828;SDS011;67019;51.034;3.728;2023-08-21T12:49:59;5.85;;;3.62;;
77828;SDS011;67019;51.034;3.728;2023-08-21T12:52:26;7.12;;;3.20;;
77828;SDS011;67019;51.034;3.728;2023-08-21T12:54:55;3.90;;;2.72;;
77828;SDS011;67019;51.034;3.728;2023-08-21T12:57:25;6.62;;;3.33;;
77828;SDS011;67019;51.034;3.728;2023-08-21T12:59:52;9.00;;;2.75;;
77828;SDS011;67019;51.034;3.728;2023-08-21T13:02:20;7.17;;;2.20;;
77828;SDS011;67019;51.034;3.728;2023-08-21T13:04:49;7.53;;;2.30;;
77828;SDS011;67019;51.034;3.728;2023-08-21T13:07:16;3.95;;;1.65;;
77828;SDS011;67019;51.034;3.728;2023-08-21T13:09:44;5.95;;;2.47;;
77828;SDS011;67019;51.034;3.728;2023-08-21T13:12:11;4.05;;;1.62;;
77828;SDS011;67019;51.034;3.728;2023-08-21T13:14:39;5.95;;;1.87;;
77828;SDS011;67019;51.034;3.728;2023-08-21T13:17:07;5.75;;;1.62;;
77828;SDS011;67019;51.034;3.728;2023-08-21T13:19:35;4.35;;;1.80;;
77828;SDS011;67019;51.034;3.728;2023-08-21T13:22:02;8.75;;;2.25;;
77828;SDS011;67019;51.034;3.728;2023-08-21T13:24:30;5.75;;;1.98;;
77828;SDS011;67019;51.034;3.728;2023-08-21T13:26:59;3.47;;;1.70;;
77828;SDS011;67019;51.034;3.728;2023-08-21T13:29:27;6.12;;;1.60;;
77828;SDS011;67019;51.034;3.728;2023-08-21T13:31:54;8.50;;;2.80;;
77828;SDS011;67019;51.034;3.728;2023-08-21T13:34:22;5.10;;;2.05;;
77828;SDS011;67019;51.034;3.728;2023-08-21T13:36:50;8.43;;;2.30;;
77828;SDS011;67019;51.034;3.728;2023-08-21T13:39:18;2.98;;;1.70;;
77828;SDS011;67019;51.034;3.728;2023-08-21T13:41:46;5.75;;;1.40;;
77828;SDS011;67019;51.034;3.728;2023-08-21T13:44:16;2.98;;;1.62;;
77828;SDS011;67019;51.034;3.728;2023-08-21T13:46:43;4.85;;;1.60;;
77828;SDS011;67019;51.034;3.728;2023-08-21T13:49:11;6.33;;;1.52;;
77828;SDS011;67019;51.034;3.728;2023-08-21T13:51:40;3.22;;;1.17;;
77828;SDS011;67019;51.034;3.728;2023-08-21T13:54:07;6.53;;;1.42;;
77828;SDS011;67019;51.034;3.728;2023-08-21T13:56:35;9.15;;;2.10;;
77828;SDS011;67019;51.034;3.728;2023-08-21T13:59:02;5.50;;;1.70;;
77828;SDS011;67019;51.034;3.728;2023-08-21T14:01:30;5.70;;;2.47;;
77828;SDS011;67019;51.034;3.728;2023-08-21T14:03:57;6.62;;;3.42;;
77828;SDS011;67019;51.034;3.728;2023-08-21T14:06:25;5.40;;;1.98;;
77828;SDS011;67019;51.034;3.728;2023-08-21T14:08:53;3.15;;;1.50;;
77828;SDS011;67019;51.034;3.728;2023-08-21T14:11:20;8.65;;;1.30;;
77828;SDS011;67019;51.034;3.728;2023-08-21T14:13:48;5.47;;;1.40;;
77828;SDS011;67019;51.034;3.728;2023-08-21T14:16:15;2.47;;;1.40;;
77828;SDS011;67019;51.034;3.728;2023-08-21T14:18:45;6.37;;;1.40;;
77828;SDS011;67019;51.034;3.728;2023-08-21T14:21:12;5.55;;;2.37;;
77828;SDS011;67019;51.034;3.728;2023-08-21T14:23:40;5.22;;;2.12;;
77828;SDS011;67019;51.034;3.728;2023-08-21T14:26:07;7.28;;;1.80;;
77828;SDS011;67019;51.034;3.728;2023-08-21T14:28:35;4.10;;;1.57;;
77828;SDS011;67019;51.034;3.728;2023-08-21T14:36:21;2.62;;;1.17;;
77828;SDS011;67019;51.034;3.728;2023-08-21T14:38:48;3.77;;;1.32;;
77828;SDS011;67019;51.034;3.728;2023-08-21T14:41:16;4.33;;;1.50;;
77828;SDS011;67019;51.034;3.728;2023-08-21T14:43:44;5.15;;;1.50;;
77828;SDS011;67019;51.034;3.728;2023-08-21T14:46:13;8.70;;;1.98;;
77828;SDS011;67019;51.034;3.728;2023-08-21T14:48:41;5.58;;;1.07;;
77828;SDS011;67019;51.034;3.728;2023-08-21T14:51:08;4.12;;;1.27;;
77828;SDS011;67019;51.034;3.728;2023-08-21T14:53:36;3.00;;;1.10;;
77828;SDS011;67019;51.034;3.728;2023-08-21T14:56:04;4.37;;;1.17;;
77828;SDS011;67019;51.034;3.728;2023-08-21T14:58:31;4.83;;;1.20;;
77828;SDS011;67019;51.034;3.728;2023-08-21T15:01:00;3.02;;;1.10;;
77828;SDS011;67019;51.034;3.728;2023-08-21T15:03:30;4.87;;;1.10;;
77828;SDS011;67019;51.034;3.728;2023-08-21T15:05:58;9.60;;;1.57;;